Intracoastal City, Louisiana
Current Conditions -  °F | °C
As of 10:35 AM on Wednesday 22 Oct 2014 (Local Time) from KPTN Reporting Station
Clear Clear  
Wind Chill: 73°   Ceiling: Unl
Heat Index: 73°   Visibility: 10mi
Dew Point: 61°   Wind: 10mph
Humidity: 65%   Direction: 60°ENE
Pressure: 30.12"   Gusts: NA
Location:  29.73°N, 91.12°W
Report Text: KPTN 221535Z AUTO 06009KT 10SM CLR 23/16 A3012 RMK AO1
Loading
Personal Weather Stations






























Interactive Weather Map
Tropical Storm Tracking
New forecast layout! Learn more

10-Day Weather Forecast

Advertisements
Track Severe Weather on mobile